sensor_id;sensor_type;location;lat;lon;timestamp;temperature;humidity
7658;DHT22;8462;53.156;8.220;2023-06-19T00:00:29;24.20;75.70
7658;DHT22;8462;53.156;8.220;2023-06-19T00:02:58;24.20;75.30
7658;DHT22;8462;53.156;8.220;2023-06-19T00:05:24;24.10;75.00
7658;DHT22;8462;53.156;8.220;2023-06-19T00:07:52;24.10;75.10
7658;DHT22;8462;53.156;8.220;2023-06-19T00:10:19;24.10;75.00
7658;DHT22;8462;53.156;8.220;2023-06-19T00:12:46;24.10;75.00
7658;DHT22;8462;53.156;8.220;2023-06-19T00:15:13;24.10;74.90
7658;DHT22;8462;53.156;8.220;2023-06-19T00:17:40;24.10;74.70
7658;DHT22;8462;53.156;8.220;2023-06-19T00:20:10;24.10;74.80
7658;DHT22;8462;53.156;8.220;2023-06-19T00:22:39;24.10;74.70
7658;DHT22;8462;53.156;8.220;2023-06-19T00:25:07;24.10;74.40
7658;DHT22;8462;53.156;8.220;2023-06-19T00:27:34;24.10;74.40
7658;DHT22;8462;53.156;8.220;2023-06-19T00:30:01;24.10;74.00
7658;DHT22;8462;53.156;8.220;2023-06-19T00:32:28;24.10;74.00
7658;DHT22;8462;53.156;8.220;2023-06-19T00:34:56;24.10;73.70
7658;DHT22;8462;53.156;8.220;2023-06-19T00:37:26;24.10;73.60
7658;DHT22;8462;53.156;8.220;2023-06-19T00:39:59;24.10;73.60
7658;DHT22;8462;53.156;8.220;2023-06-19T00:42:26;24.00;72.90
7658;DHT22;8462;53.156;8.220;2023-06-19T00:44:53;24.00;73.10
7658;DHT22;8462;53.156;8.220;2023-06-19T00:47:20;24.00;72.90
7658;DHT22;8462;53.156;8.220;2023-06-19T00:49:48;24.00;72.80
7658;DHT22;8462;53.156;8.220;2023-06-19T00:52:16;24.00;72.80
7658;DHT22;8462;53.156;8.220;2023-06-19T00:54:45;23.90;72.80
7658;DHT22;8462;53.156;8.220;2023-06-19T00:57:11;23.90;72.90
7658;DHT22;8462;53.156;8.220;2023-06-19T00:59:40;23.90;73.00
7658;DHT22;8462;53.156;8.220;2023-06-19T01:02:06;23.80;72.80
7658;DHT22;8462;53.156;8.220;2023-06-19T01:04:34;23.80;72.50
7658;DHT22;8462;53.156;8.220;2023-06-19T01:07:05;23.80;72.40
7658;DHT22;8462;53.156;8.220;2023-06-19T01:09:39;23.80;72.30
7658;DHT22;8462;53.156;8.220;2023-06-19T01:12:13;23.80;72.10
7658;DHT22;8462;53.156;8.220;2023-06-19T01:14:48;23.80;71.90
7658;DHT22;8462;53.156;8.220;2023-06-19T01:17:16;23.70;71.90
7658;DHT22;8462;53.156;8.220;2023-06-19T01:19:44;23.70;71.80
7658;DHT22;8462;53.156;8.220;2023-06-19T01:22:23;23.70;71.80
7658;DHT22;8462;53.156;8.220;2023-06-19T01:24:50;23.60;71.70
7658;DHT22;8462;53.156;8.220;2023-06-19T01:27:17;23.60;71.70
7658;DHT22;8462;53.156;8.220;2023-06-19T01:29:45;23.60;71.50
7658;DHT22;8462;53.156;8.220;2023-06-19T01:32:15;23.60;71.50
7658;DHT22;8462;53.156;8.220;2023-06-19T01:34:43;23.60;71.40
7658;DHT22;8462;53.156;8.220;2023-06-19T01:37:12;23.60;71.20
7658;DHT22;8462;53.156;8.220;2023-06-19T01:39:39;23.50;70.90
7658;DHT22;8462;53.156;8.220;2023-06-19T01:42:10;23.50;70.70
7658;DHT22;8462;53.156;8.220;2023-06-19T01:44:38;23.50;70.80
7658;DHT22;8462;53.156;8.220;2023-06-19T01:47:10;23.50;70.20
7658;DHT22;8462;53.156;8.220;2023-06-19T01:49:38;23.50;70.00
7658;DHT22;8462;53.156;8.220;2023-06-19T01:52:06;23.50;69.60
7658;DHT22;8462;53.156;8.220;2023-06-19T01:54:34;23.60;69.50
7658;DHT22;8462;53.156;8.220;2023-06-19T01:57:01;23.60;69.60
7658;DHT22;8462;53.156;8.220;2023-06-19T01:59:29;23.60;69.40
7658;DHT22;8462;53.156;8.220;2023-06-19T02:01:56;23.60;69.40
7658;DHT22;8462;53.156;8.220;2023-06-19T02:04:23;23.60;69.50
7658;DHT22;8462;53.156;8.220;2023-06-19T02:06:50;23.60;69.70
7658;DHT22;8462;53.156;8.220;2023-06-19T02:09:17;23.60;69.80
7658;DHT22;8462;53.156;8.220;2023-06-19T02:11:45;23.60;69.80
7658;DHT22;8462;53.156;8.220;2023-06-19T02:14:12;23.50;70.00
7658;DHT22;8462;53.156;8.220;2023-06-19T02:16:39;23.50;69.90
7658;DHT22;8462;53.156;8.220;2023-06-19T02:19:09;23.50;69.80
7658;DHT22;8462;53.156;8.220;2023-06-19T02:21:38;23.50;69.70
7658;DHT22;8462;53.156;8.220;2023-06-19T02:24:05;23.50;69.70
7658;DHT22;8462;53.156;8.220;2023-06-19T02:26:32;23.50;69.60
7658;DHT22;8462;53.156;8.220;2023-06-19T02:29:00;23.50;69.60
7658;DHT22;8462;53.156;8.220;2023-06-19T02:31:27;23.50;69.40
7658;DHT22;8462;53.156;8.220;2023-06-19T02:33:54;23.50;69.40
7658;DHT22;8462;53.156;8.220;2023-06-19T02:36:21;23.60;69.20
7658;DHT22;8462;53.156;8.220;2023-06-19T02:38:48;23.60;68.90
7658;DHT22;8462;53.156;8.220;2023-06-19T02:41:15;23.70;69.50
7658;DHT22;8462;53.156;8.220;2023-06-19T02:43:45;23.70;68.50
7658;DHT22;8462;53.156;8.220;2023-06-19T02:46:13;23.70;68.10
7658;DHT22;8462;53.156;8.220;2023-06-19T02:48:40;23.70;68.10
7658;DHT22;8462;53.156;8.220;2023-06-19T02:51:07;23.80;67.80
7658;DHT22;8462;53.156;8.220;2023-06-19T02:53:34;23.80;67.50
7658;DHT22;8462;53.156;8.220;2023-06-19T02:56:01;23.80;67.60
7658;DHT22;8462;53.156;8.220;2023-06-19T02:58:28;23.80;67.50
7658;DHT22;8462;53.156;8.220;2023-06-19T03:00:55;23.90;67.50
7658;DHT22;8462;53.156;8.220;2023-06-19T03:03:24;23.90;67.50
7658;DHT22;8462;53.156;8.220;2023-06-19T03:05:51;23.90;67.30
7658;DHT22;8462;53.156;8.220;2023-06-19T03:08:17;23.90;67.30
7658;DHT22;8462;53.156;8.220;2023-06-19T03:10:45;23.90;67.30
7658;DHT22;8462;53.156;8.220;2023-06-19T03:13:12;23.90;67.30
7658;DHT22;8462;53.156;8.220;2023-06-19T03:15:39;23.90;67.30
7658;DHT22;8462;53.156;8.220;2023-06-19T03:18:06;24.00;67.30
7658;DHT22;8462;53.156;8.220;2023-06-19T03:20:39;24.10;67.30
7658;DHT22;8462;53.156;8.220;2023-06-19T03:23:05;24.10;66.90
7658;DHT22;8462;53.156;8.220;2023-06-19T03:25:32;24.10;67.20
7658;DHT22;8462;53.156;8.220;2023-06-19T03:28:01;24.10;66.90
7658;DHT22;8462;53.156;8.220;2023-06-19T03:30:29;24.10;66.80
7658;DHT22;8462;53.156;8.220;2023-06-19T03:32:56;24.10;66.60
7658;DHT22;8462;53.156;8.220;2023-06-19T03:35:51;24.10;66.90
7658;DHT22;8462;53.156;8.220;2023-06-19T03:38:35;24.20;66.90
7658;DHT22;8462;53.156;8.220;2023-06-19T03:41:02;24.20;66.70
7658;DHT22;8462;53.156;8.220;2023-06-19T03:43:29;24.20;66.60
7658;DHT22;8462;53.156;8.220;2023-06-19T03:45:56;24.20;66.70
7658;DHT22;8462;53.156;8.220;2023-06-19T03:48:22;24.20;66.80
7658;DHT22;8462;53.156;8.220;2023-06-19T03:50:51;24.20;66.80
7658;DHT22;8462;53.156;8.220;2023-06-19T03:53:18;24.20;67.00
7658;DHT22;8462;53.156;8.220;2023-06-19T03:55:45;24.20;67.10
7658;DHT22;8462;53.156;8.220;2023-06-19T03:58:13;24.20;67.10
7658;DHT22;8462;53.156;8.220;2023-06-19T04:00:41;24.20;67.00
7658;DHT22;8462;53.156;8.220;2023-06-19T04:03:08;24.30;66.90
7658;DHT22;8462;53.156;8.220;2023-06-19T04:05:40;24.30;67.10
7658;DHT22;8462;53.156;8.220;2023-06-19T04:08:09;24.30;67.10
7658;DHT22;8462;53.156;8.220;2023-06-19T04:10:36;24.40;67.20
7658;DHT22;8462;53.156;8.220;2023-06-19T04:13:04;24.40;67.30
7658;DHT22;8462;53.156;8.220;2023-06-19T04:15:32;24.40;67.10
7658;DHT22;8462;53.156;8.220;2023-06-19T04:18:00;24.40;67.30
7658;DHT22;8462;53.156;8.220;2023-06-19T04:20:27;24.40;67.30
7658;DHT22;8462;53.156;8.220;2023-06-19T04:22:54;24.40;67.40
7658;DHT22;8462;53.156;8.220;2023-06-19T04:25:22;24.40;67.40
7658;DHT22;8462;53.156;8.220;2023-06-19T04:27:49;24.40;67.50
7658;DHT22;8462;53.156;8.220;2023-06-19T04:30:16;24.50;67.50
7658;DHT22;8462;53.156;8.220;2023-06-19T04:32:43;24.50;67.30
7658;DHT22;8462;53.156;8.220;2023-06-19T04:35:10;24.50;67.20
7658;DHT22;8462;53.156;8.220;2023-06-19T04:37:37;24.60;67.10
7658;DHT22;8462;53.156;8.220;2023-06-19T04:40:04;24.60;67.00
7658;DHT22;8462;53.156;8.220;2023-06-19T04:42:34;24.60;66.90
7658;DHT22;8462;53.156;8.220;2023-06-19T04:45:01;24.60;66.70
7658;DHT22;8462;53.156;8.220;2023-06-19T04:47:28;24.60;66.70
7658;DHT22;8462;53.156;8.220;2023-06-19T04:49:54;24.70;66.90
7658;DHT22;8462;53.156;8.220;2023-06-19T04:52:21;24.70;66.90
7658;DHT22;8462;53.156;8.220;2023-06-19T04:54:48;24.80;67.70
7658;DHT22;8462;53.156;8.220;2023-06-19T04:57:16;25.00;66.50
7658;DHT22;8462;53.156;8.220;2023-06-19T04:59:44;25.00;66.30
7658;DHT22;8462;53.156;8.220;2023-06-19T05:02:11;25.10;66.30
7658;DHT22;8462;53.156;8.220;2023-06-19T05:04:38;25.20;66.20
7658;DHT22;8462;53.156;8.220;2023-06-19T05:07:08;25.40;66.20
7658;DHT22;8462;53.156;8.220;2023-06-19T05:09:36;25.60;65.30
7658;DHT22;8462;53.156;8.220;2023-06-19T05:12:03;25.80;64.70
7658;DHT22;8462;53.156;8.220;2023-06-19T05:14:30;25.80;64.70
7658;DHT22;8462;53.156;8.220;2023-06-19T05:16:58;25.80;64.90
7658;DHT22;8462;53.156;8.220;2023-06-19T05:19:25;25.70;64.80
7658;DHT22;8462;53.156;8.220;2023-06-19T05:21:52;25.60;65.00
7658;DHT22;8462;53.156;8.220;2023-06-19T05:24:19;25.60;65.40
7658;DHT22;8462;53.156;8.220;2023-06-19T05:26:46;25.60;65.40
7658;DHT22;8462;53.156;8.220;2023-06-19T05:29:13;25.70;65.40
7658;DHT22;8462;53.156;8.220;2023-06-19T05:31:40;26.20;65.50
7658;DHT22;8462;53.156;8.220;2023-06-19T05:35:22;26.90;64.50
7658;DHT22;8462;53.156;8.220;2023-06-19T05:39:03;28.20;61.50
7658;DHT22;8462;53.156;8.220;2023-06-19T05:42:45;29.00;58.60
7658;DHT22;8462;53.156;8.220;2023-06-19T05:46:26;28.90;57.50
7658;DHT22;8462;53.156;8.220;2023-06-19T05:50:08;28.50;58.90
7658;DHT22;8462;53.156;8.220;2023-06-19T05:53:51;28.10;59.20
7658;DHT22;8462;53.156;8.220;2023-06-19T05:57:31;27.70;60.50
7658;DHT22;8462;53.156;8.220;2023-06-19T06:01:13;27.50;61.30
7658;DHT22;8462;53.156;8.220;2023-06-19T06:04:54;27.90;61.50
7658;DHT22;8462;53.156;8.220;2023-06-19T06:08:36;28.50;59.30
7658;DHT22;8462;53.156;8.220;2023-06-19T06:12:19;28.70;58.30
7658;DHT22;8462;53.156;8.220;2023-06-19T06:16:00;28.60;58.40
7658;DHT22;8462;53.156;8.220;2023-06-19T06:19:42;28.30;59.30
7658;DHT22;8462;53.156;8.220;2023-06-19T06:23:23;28.10;59.30
7658;DHT22;8462;53.156;8.220;2023-06-19T06:27:05;27.90;60.00
7658;DHT22;8462;53.156;8.220;2023-06-19T06:30:49;28.00;60.90
7658;DHT22;8462;53.156;8.220;2023-06-19T06:34:30;27.90;61.10
7658;DHT22;8462;53.156;8.220;2023-06-19T06:38:11;27.80;61.20
7658;DHT22;8462;53.156;8.220;2023-06-19T06:41:53;27.80;61.20
7658;DHT22;8462;53.156;8.220;2023-06-19T06:45:35;27.70;61.60
7658;DHT22;8462;53.156;8.220;2023-06-19T06:49:17;27.50;62.20
7658;DHT22;8462;53.156;8.220;2023-06-19T06:53:00;27.50;62.80
7658;DHT22;8462;53.156;8.220;2023-06-19T06:56:41;27.80;63.10
7658;DHT22;8462;53.156;8.220;2023-06-19T07:00:23;28.20;62.10
7658;DHT22;8462;53.156;8.220;2023-06-19T07:04:04;28.40;62.10
7658;DHT22;8462;53.156;8.220;2023-06-19T07:07:47;28.90;61.20
7658;DHT22;8462;53.156;8.220;2023-06-19T07:11:28;30.20;60.10
7658;DHT22;8462;53.156;8.220;2023-06-19T07:15:10;31.50;57.30
7658;DHT22;8462;53.156;8.220;2023-06-19T07:18:52;32.60;55.60
7658;DHT22;8462;53.156;8.220;2023-06-19T07:22:33;33.40;53.90
7658;DHT22;8462;53.156;8.220;2023-06-19T07:26:15;34.10;52.50
7658;DHT22;8462;53.156;8.220;2023-06-19T07:29:56;34.50;51.70
7658;DHT22;8462;53.156;8.220;2023-06-19T07:33:39;34.80;50.90
7658;DHT22;8462;53.156;8.220;2023-06-19T07:37:21;35.00;49.60
7658;DHT22;8462;53.156;8.220;2023-06-19T07:41:01;35.10;49.60
7658;DHT22;8462;53.156;8.220;2023-06-19T07:44:44;35.30;49.00
7658;DHT22;8462;53.156;8.220;2023-06-19T07:48:25;35.30;49.20
7658;DHT22;8462;53.156;8.220;2023-06-19T07:52:08;34.80;48.60
7658;DHT22;8462;53.156;8.220;2023-06-19T07:55:49;34.10;50.20
7658;DHT22;8462;53.156;8.220;2023-06-19T07:59:30;33.50;51.30
7658;DHT22;8462;53.156;8.220;2023-06-19T08:03:13;32.90;52.20
7658;DHT22;8462;53.156;8.220;2023-06-19T08:06:55;32.10;53.90
7658;DHT22;8462;53.156;8.220;2023-06-19T08:10:37;31.60;55.30
7658;DHT22;8462;53.156;8.220;2023-06-19T08:14:19;31.10;56.50
7658;DHT22;8462;53.156;8.220;2023-06-19T08:18:00;31.00;57.50
7658;DHT22;8462;53.156;8.220;2023-06-19T08:21:43;30.90;58.20
7658;DHT22;8462;53.156;8.220;2023-06-19T08:25:24;30.90;58.40
7658;DHT22;8462;53.156;8.220;2023-06-19T14:42:37;29.20;57.40
7658;DHT22;8462;53.156;8.220;2023-06-19T14:45:04;28.90;58.40
7658;DHT22;8462;53.156;8.220;2023-06-19T14:47:32;28.90;58.60
7658;DHT22;8462;53.156;8.220;2023-06-19T14:49:59;28.80;59.20
7658;DHT22;8462;53.156;8.220;2023-06-19T14:52:25;28.80;59.60
7658;DHT22;8462;53.156;8.220;2023-06-19T14:54:52;28.80;59.70
7658;DHT22;8462;53.156;8.220;2023-06-19T14:57:20;28.90;59.70
7658;DHT22;8462;53.156;8.220;2023-06-19T14:59:49;28.90;59.30
7658;DHT22;8462;53.156;8.220;2023-06-19T15:02:16;28.80;59.30
7658;DHT22;8462;53.156;8.220;2023-06-19T15:04:42;28.70;59.60
7658;DHT22;8462;53.156;8.220;2023-06-19T15:07:10;28.60;59.90
7658;DHT22;8462;53.156;8.220;2023-06-19T15:09:37;28.70;60.80
7658;DHT22;8462;53.156;8.220;2023-06-19T15:12:04;28.70;60.40
7658;DHT22;8462;53.156;8.220;2023-06-19T15:14:31;28.70;60.50
7658;DHT22;8462;53.156;8.220;2023-06-19T15:17:00;28.70;60.10
7658;DHT22;8462;53.156;8.220;2023-06-19T15:19:27;28.70;60.00
7658;DHT22;8462;53.156;8.220;2023-06-19T15:21:54;28.70;59.90
7658;DHT22;8462;53.156;8.220;2023-06-19T15:24:21;28.70;59.60
7658;DHT22;8462;53.156;8.220;2023-06-19T15:26:47;28.60;59.10
7658;DHT22;8462;53.156;8.220;2023-06-19T15:29:14;28.60;60.50
7658;DHT22;8462;53.156;8.220;2023-06-19T15:31:41;28.70;59.80
7658;DHT22;8462;53.156;8.220;2023-06-19T15:34:10;28.70;59.20
7658;DHT22;8462;53.156;8.220;2023-06-19T15:36:38;28.70;59.20
7658;DHT22;8462;53.156;8.220;2023-06-19T15:39:04;28.60;59.00
7658;DHT22;8462;53.156;8.220;2023-06-19T15:41:32;28.50;59.10
7658;DHT22;8462;53.156;8.220;2023-06-19T15:43:58;28.50;59.40
7658;DHT22;8462;53.156;8.220;2023-06-19T15:46:25;28.60;59.50
7658;DHT22;8462;53.156;8.220;2023-06-19T15:48:52;28.50;59.20
7658;DHT22;8462;53.156;8.220;2023-06-19T15:51:21;28.50;59.00
7658;DHT22;8462;53.156;8.220;2023-06-19T15:53:48;28.50;59.30
7658;DHT22;8462;53.156;8.220;2023-06-19T15:56:15;28.50;59.60
7658;DHT22;8462;53.156;8.220;2023-06-19T15:58:42;28.50;58.80
7658;DHT22;8462;53.156;8.220;2023-06-19T16:01:08;28.50;59.00
7658;DHT22;8462;53.156;8.220;2023-06-19T16:03:35;28.50;59.00
7658;DHT22;8462;53.156;8.220;2023-06-19T16:06:02;28.50;59.00
7658;DHT22;8462;53.156;8.220;2023-06-19T16:08:30;28.60;59.10
7658;DHT22;8462;53.156;8.220;2023-06-19T16:11:00;28.50;58.60
7658;DHT22;8462;53.156;8.220;2023-06-19T16:13:30;28.40;58.80
7658;DHT22;8462;53.156;8.220;2023-06-19T16:15:59;28.40;59.00
7658;DHT22;8462;53.156;8.220;2023-06-19T16:18:26;28.40;59.10
7658;DHT22;8462;53.156;8.220;2023-06-19T16:20:54;28.40;58.90
7658;DHT22;8462;53.156;8.220;2023-06-19T16:23:21;28.30;59.10
7658;DHT22;8462;53.156;8.220;2023-06-19T16:25:49;28.40;59.30
7658;DHT22;8462;53.156;8.220;2023-06-19T16:28:16;28.40;59.20
7658;DHT22;8462;53.156;8.220;2023-06-19T16:30:43;28.40;58.70
7658;DHT22;8462;53.156;8.220;2023-06-19T16:33:10;28.30;58.90
7658;DHT22;8462;53.156;8.220;2023-06-19T16:35:37;28.40;58.80
7658;DHT22;8462;53.156;8.220;2023-06-19T16:38:04;28.30;58.50
7658;DHT22;8462;53.156;8.220;2023-06-19T16:40:31;28.30;58.30
7658;DHT22;8462;53.156;8.220;2023-06-19T16:42:59;28.20;58.60
7658;DHT22;8462;53.156;8.220;2023-06-19T16:45:26;28.20;58.80
7658;DHT22;8462;53.156;8.220;2023-06-19T16:47:53;28.30;58.60
7658;DHT22;8462;53.156;8.220;2023-06-19T16:50:20;28.30;58.30
7658;DHT22;8462;53.156;8.220;2023-06-19T16:52:47;28.20;58.10
7658;DHT22;8462;53.156;8.220;2023-06-19T16:55:14;28.20;57.50
7658;DHT22;8462;53.156;8.220;2023-06-19T16:57:41;28.20;57.50
7658;DHT22;8462;53.156;8.220;2023-06-19T17:00:11;28.10;57.70
7658;DHT22;8462;53.156;8.220;2023-06-19T17:02:38;28.10;57.90
7658;DHT22;8462;53.156;8.220;2023-06-19T17:05:06;28.10;57.80
7658;DHT22;8462;53.156;8.220;2023-06-19T17:07:33;28.10;58.20
7658;DHT22;8462;53.156;8.220;2023-06-19T17:10:00;28.10;57.80
7658;DHT22;8462;53.156;8.220;2023-06-19T17:12:27;28.00;57.90
7658;DHT22;8462;53.156;8.220;2023-06-19T17:14:54;28.00;58.20
7658;DHT22;8462;53.156;8.220;2023-06-19T17:17:23;27.90;57.90
7658;DHT22;8462;53.156;8.220;2023-06-19T17:19:50;27.80;57.40
7658;DHT22;8462;53.156;8.220;2023-06-19T17:22:18;27.70;59.00
7658;DHT22;8462;53.156;8.220;2023-06-19T17:24:45;27.70;58.40
7658;DHT22;8462;53.156;8.220;2023-06-19T17:27:12;27.60;58.40
7658;DHT22;8462;53.156;8.220;2023-06-19T17:29:39;27.60;58.70
7658;DHT22;8462;53.156;8.220;2023-06-19T17:32:06;27.60;59.10
7658;DHT22;8462;53.156;8.220;2023-06-19T17:34:35;27.60;58.80
7658;DHT22;8462;53.156;8.220;2023-06-19T17:37:02;27.60;58.70
7658;DHT22;8462;53.156;8.220;2023-06-19T17:39:29;27.50;58.40
7658;DHT22;8462;53.156;8.220;2023-06-19T17:41:56;27.60;58.60
7658;DHT22;8462;53.156;8.220;2023-06-19T17:44:23;27.50;58.30
7658;DHT22;8462;53.156;8.220;2023-06-19T17:46:52;27.50;58.10
7658;DHT22;8462;53.156;8.220;2023-06-19T17:49:19;27.50;58.20
7658;DHT22;8462;53.156;8.220;2023-06-19T17:51:49;27.50;58.30
7658;DHT22;8462;53.156;8.220;2023-06-19T17:54:16;27.40;58.50
7658;DHT22;8462;53.156;8.220;2023-06-19T17:56:43;27.40;59.00
7658;DHT22;8462;53.156;8.220;2023-06-19T17:59:11;27.40;58.90
7658;DHT22;8462;53.156;8.220;2023-06-19T18:01:39;27.30;59.00
7658;DHT22;8462;53.156;8.220;2023-06-19T18:04:05;27.30;59.40
7658;DHT22;8462;53.156;8.220;2023-06-19T18:06:32;27.30;59.50
7658;DHT22;8462;53.156;8.220;2023-06-19T18:09:00;27.30;59.50
7658;DHT22;8462;53.156;8.220;2023-06-19T18:11:27;27.20;59.60
7658;DHT22;8462;53.156;8.220;2023-06-19T18:13:55;27.20;59.80
7658;DHT22;8462;53.156;8.220;2023-06-19T18:16:22;27.20;60.20
7658;DHT22;8462;53.156;8.220;2023-06-19T18:18:49;27.20;60.40
7658;DHT22;8462;53.156;8.220;2023-06-19T18:21:16;27.10;60.60
7658;DHT22;8462;53.156;8.220;2023-06-19T18:23:43;27.00;61.20
7658;DHT22;8462;53.156;8.220;2023-06-19T18:26:11;27.00;61.10
7658;DHT22;8462;53.156;8.220;2023-06-19T18:28:39;27.00;61.30
7658;DHT22;8462;53.156;8.220;2023-06-19T18:31:06;27.00;61.30
7658;DHT22;8462;53.156;8.220;2023-06-19T18:33:32;26.90;61.50
7658;DHT22;8462;53.156;8.220;2023-06-19T18:35:59;26.90;61.60
7658;DHT22;8462;53.156;8.220;2023-06-19T18:38:26;26.80;61.60
7658;DHT22;8462;53.156;8.220;2023-06-19T18:40:53;26.80;61.80
7658;DHT22;8462;53.156;8.220;2023-06-19T18:43:21;26.70;61.80
7658;DHT22;8462;53.156;8.220;2023-06-19T18:45:48;26.70;62.00
7658;DHT22;8462;53.156;8.220;2023-06-19T18:48:16;26.60;62.10
7658;DHT22;8462;53.156;8.220;2023-06-19T18:50:43;26.50;62.30
7658;DHT22;8462;53.156;8.220;2023-06-19T18:53:09;26.50;62.40
7658;DHT22;8462;53.156;8.220;2023-06-19T18:55:37;26.40;62.60
7658;DHT22;8462;53.156;8.220;2023-06-19T18:58:04;26.30;62.80
7658;DHT22;8462;53.156;8.220;2023-06-19T19:00:32;26.30;63.00
7658;DHT22;8462;53.156;8.220;2023-06-19T19:02:59;26.20;63.40
7658;DHT22;8462;53.156;8.220;2023-06-19T19:05:26;26.20;63.50
7658;DHT22;8462;53.156;8.220;2023-06-19T19:07:53;26.20;63.60
7658;DHT22;8462;53.156;8.220;2023-06-19T19:10:20;26.10;63.90
7658;DHT22;8462;53.156;8.220;2023-06-19T19:12:47;26.00;64.10
7658;DHT22;8462;53.156;8.220;2023-06-19T19:15:14;26.00;64.50
7658;DHT22;8462;53.156;8.220;2023-06-19T19:17:43;25.90;64.70
7658;DHT22;8462;53.156;8.220;2023-06-19T19:20:11;25.90;65.00
7658;DHT22;8462;53.156;8.220;2023-06-19T19:22:39;25.80;65.30
7658;DHT22;8462;53.156;8.220;2023-06-19T19:25:06;25.80;65.70
7658;DHT22;8462;53.156;8.220;2023-06-19T19:27:33;25.80;66.00
7658;DHT22;8462;53.156;8.220;2023-06-19T19:30:00;25.70;66.40
7658;DHT22;8462;53.156;8.220;2023-06-19T19:32:27;25.60;66.60
7658;DHT22;8462;53.156;8.220;2023-06-19T19:34:55;25.50;67.10
7658;DHT22;8462;53.156;8.220;2023-06-19T19:37:24;25.40;67.40
7658;DHT22;8462;53.156;8.220;2023-06-19T19:39:53;25.40;67.70
7658;DHT22;8462;53.156;8.220;2023-06-19T19:42:22;25.30;68.00
7658;DHT22;8462;53.156;8.220;2023-06-19T19:44:49;25.20;68.10
7658;DHT22;8462;53.156;8.220;2023-06-19T19:47:16;25.20;68.50
7658;DHT22;8462;53.156;8.220;2023-06-19T19:49:43;25.20;69.50
7658;DHT22;8462;53.156;8.220;2023-06-19T19:52:11;25.10;69.30
7658;DHT22;8462;53.156;8.220;2023-06-19T19:54:38;25.10;69.60
7658;DHT22;8462;53.156;8.220;2023-06-19T19:57:05;25.00;69.50
7658;DHT22;8462;53.156;8.220;2023-06-19T19:59:33;24.90;70.10
7658;DHT22;8462;53.156;8.220;2023-06-19T20:02:00;24.80;70.20
7658;DHT22;8462;53.156;8.220;2023-06-19T20:04:27;24.80;70.50
7658;DHT22;8462;53.156;8.220;2023-06-19T20:06:53;24.70;70.90
7658;DHT22;8462;53.156;8.220;2023-06-19T20:09:22;24.60;71.20
7658;DHT22;8462;53.156;8.220;2023-06-19T20:11:49;24.60;71.30
7658;DHT22;8462;53.156;8.220;2023-06-19T20:14:16;24.50;71.70
7658;DHT22;8462;53.156;8.220;2023-06-19T20:16:42;24.50;71.90
7658;DHT22;8462;53.156;8.220;2023-06-19T20:19:09;24.40;72.30
7658;DHT22;8462;53.156;8.220;2023-06-19T20:21:36;24.30;75.70
7658;DHT22;8462;53.156;8.220;2023-06-19T20:24:04;24.10;79.20
7658;DHT22;8462;53.156;8.220;2023-06-19T20:26:32;23.80;83.40
7658;DHT22;8462;53.156;8.220;2023-06-19T20:28:59;23.50;86.50
7658;DHT22;8462;53.156;8.220;2023-06-19T20:31:25;23.30;89.00
7658;DHT22;8462;53.156;8.220;2023-06-19T20:33:52;23.00;90.30
7658;DHT22;8462;53.156;8.220;2023-06-19T20:36:19;22.80;91.10
7658;DHT22;8462;53.156;8.220;2023-06-19T20:38:47;22.60;91.70
7658;DHT22;8462;53.156;8.220;2023-06-19T20:41:14;22.40;92.40
7658;DHT22;8462;53.156;8.220;2023-06-19T20:43:43;22.30;93.10
7658;DHT22;8462;53.156;8.220;2023-06-19T20:46:11;22.10;94.00
7658;DHT22;8462;53.156;8.220;2023-06-19T20:48:38;22.00;94.30
7658;DHT22;8462;53.156;8.220;2023-06-19T20:51:05;21.80;94.70
7658;DHT22;8462;53.156;8.220;2023-06-19T20:53:32;21.70;95.20
7658;DHT22;8462;53.156;8.220;2023-06-19T20:55:58;21.50;95.50
7658;DHT22;8462;53.156;8.220;2023-06-19T20:58:25;21.40;95.70
7658;DHT22;8462;53.156;8.220;2023-06-19T21:00:54;21.40;95.90
7658;DHT22;8462;53.156;8.220;2023-06-19T21:03:21;21.30;96.30
7658;DHT22;8462;53.156;8.220;2023-06-19T21:05:52;21.20;96.30
7658;DHT22;8462;53.156;8.220;2023-06-19T21:08:22;21.10;96.40
7658;DHT22;8462;53.156;8.220;2023-06-19T21:10:51;21.10;96.50
7658;DHT22;8462;53.156;8.220;2023-06-19T21:13:17;21.00;96.80
7658;DHT22;8462;53.156;8.220;2023-06-19T21:15:44;20.90;97.00
7658;DHT22;8462;53.156;8.220;2023-06-19T21:18:12;20.90;97.10
7658;DHT22;8462;53.156;8.220;2023-06-19T21:20:41;20.90;97.30
7658;DHT22;8462;53.156;8.220;2023-06-19T21:23:08;20.80;97.30
7658;DHT22;8462;53.156;8.220;2023-06-19T21:25:34;20.70;97.40
7658;DHT22;8462;53.156;8.220;2023-06-19T21:28:01;20.70;97.50
7658;DHT22;8462;53.156;8.220;2023-06-19T21:30:28;20.70;97.70
7658;DHT22;8462;53.156;8.220;2023-06-19T21:32:57;20.70;97.70
7658;DHT22;8462;53.156;8.220;2023-06-19T21:35:25;20.70;97.50
7658;DHT22;8462;53.156;8.220;2023-06-19T21:37:52;20.60;97.60
7658;DHT22;8462;53.156;8.220;2023-06-19T21:40:19;20.60;97.60
7658;DHT22;8462;53.156;8.220;2023-06-19T21:42:47;20.60;97.50
7658;DHT22;8462;53.156;8.220;2023-06-19T21:45:14;20.50;97.70
7658;DHT22;8462;53.156;8.220;2023-06-19T21:47:41;20.40;98.00
7658;DHT22;8462;53.156;8.220;2023-06-19T21:50:09;20.30;98.00
7658;DHT22;8462;53.156;8.220;2023-06-19T21:52:39;20.30;97.90
7658;DHT22;8462;53.156;8.220;2023-06-19T21:55:08;20.30;98.00
7658;DHT22;8462;53.156;8.220;2023-06-19T21:57:35;20.20;98.20
7658;DHT22;8462;53.156;8.220;2023-06-19T22:00:06;20.10;98.30
7658;DHT22;8462;53.156;8.220;2023-06-19T22:02:38;20.10;98.30
7658;DHT22;8462;53.156;8.220;2023-06-19T22:05:06;20.10;98.30
7658;DHT22;8462;53.156;8.220;2023-06-19T22:07:33;20.00;98.20
7658;DHT22;8462;53.156;8.220;2023-06-19T22:10:02;20.00;98.80
7658;DHT22;8462;53.156;8.220;2023-06-19T22:12:29;19.90;98.50
7658;DHT22;8462;53.156;8.220;2023-06-19T22:14:56;19.90;98.70
7658;DHT22;8462;53.156;8.220;2023-06-19T22:17:25;19.80;98.80
7658;DHT22;8462;53.156;8.220;2023-06-19T22:19:52;19.80;98.80
7658;DHT22;8462;53.156;8.220;2023-06-19T22:22:19;19.80;98.70
7658;DHT22;8462;53.156;8.220;2023-06-19T22:24:46;19.80;98.80
7658;DHT22;8462;53.156;8.220;2023-06-19T22:27:14;19.80;98.90
7658;DHT22;8462;53.156;8.220;2023-06-19T22:29:41;19.70;98.80
7658;DHT22;8462;53.156;8.220;2023-06-19T22:32:08;19.70;98.80
7658;DHT22;8462;53.156;8.220;2023-06-19T22:34:35;19.70;98.70
7658;DHT22;8462;53.156;8.220;2023-06-19T22:37:02;19.70;98.80
7658;DHT22;8462;53.156;8.220;2023-06-19T22:39:29;19.70;98.80
7658;DHT22;8462;53.156;8.220;2023-06-19T22:41:57;19.60;99.00
7658;DHT22;8462;53.156;8.220;2023-06-19T22:44:25;19.50;99.20
7658;DHT22;8462;53.156;8.220;2023-06-19T22:46:52;19.50;99.20
7658;DHT22;8462;53.156;8.220;2023-06-19T22:49:19;19.50;99.00
7658;DHT22;8462;53.156;8.220;2023-06-19T22:51:45;19.50;99.00
7658;DHT22;8462;53.156;8.220;2023-06-19T22:54:13;19.50;99.10
7658;DHT22;8462;53.156;8.220;2023-06-19T22:56:40;19.40;99.10
7658;DHT22;8462;53.156;8.220;2023-06-19T22:59:07;19.50;99.10
7658;DHT22;8462;53.156;8.220;2023-06-19T23:01:35;19.40;99.00
7658;DHT22;8462;53.156;8.220;2023-06-19T23:04:02;19.50;99.00
7658;DHT22;8462;53.156;8.220;2023-06-19T23:06:30;19.50;98.90
7658;DHT22;8462;53.156;8.220;2023-06-19T23:09:06;19.40;98.80
7658;DHT22;8462;53.156;8.220;2023-06-19T23:11:33;19.40;98.80
7658;DHT22;8462;53.156;8.220;2023-06-19T23:14:00;19.30;98.90
7658;DHT22;8462;53.156;8.220;2023-06-19T23:16:26;19.30;99.00